Time;durP1;ratioP1;P1;durP2;ratioP2;P2;SDS_P1;SDS_P2;PMS_P1;PMS_P2;Temp;Humidity;BMP_temperature;BMP_pressure;BME280_temperature;BME280_humidity;BME280_pressure;Samples;Min_cycle;Max_cycle;Signal;HPM_P1;HPM_P2
2022/06/16 00:00:26;;;;;;;;;;;;;;;;;;4202771;28;43859;-76
2022/06/16 00:02:28;;;;;;;;;;;;;;;;;;4196799;28;43128;-77
2022/06/16 00:04:30;;;;;;;;;;;;;;;;;;4192641;28;43206;-78
2022/06/16 00:06:33;;;;;;;;;;;;;;;;;;4191787;28;43663;-78
2022/06/16 00:08:35;;;;;;;;;;;;;;;;;;4191378;28;42865;-77
2022/06/16 00:10:37;;;;;;;;;;;;;;;;;;4192189;28;43296;-77
2022/06/16 00:12:39;;;;;;;;;;;;;;;;;;4188170;28;43125;-77
2022/06/16 00:14:41;;;;;;;;;;;;;;;;;;4189914;28;43851;-77
2022/06/16 00:16:43;;;;;;;;;;;;;;;;;;4189611;28;43339;-78
2022/06/16 00:18:45;;;;;;;;;;;;;;;;;;4188795;28;43302;-77
2022/06/16 00:20:47;;;;;;;;;;;;;;;;;;4189481;28;44525;-77
2022/06/16 00:22:49;;;;;;;;;;;;;;;;;;4189825;28;43020;-77
2022/06/16 00:24:51;;;;;;;;;;;;;;;;;;4191980;28;43128;-77
2022/06/16 00:26:54;;;;;;;;;;;;;;;;;;4183667;28;44506;-77
2022/06/16 00:28:56;;;;;;;;;;;;;;;;;;4190853;28;44206;-76
2022/06/16 00:31:01;;;;;;;;;;;;;;;;;;4190967;28;43354;-77
2022/06/16 00:33:03;;;;;;;;;;;;;;;;;;4191688;28;43026;-77
2022/06/16 00:35:05;;;;;;;;;;;;;;;;;;4191679;28;44676;-77
2022/06/16 00:37:07;;;;;;;;;;;;;;;;;;4191222;28;44218;-76
2022/06/16 00:39:09;;;;;;;;;;;;;;;;;;4191509;28;43235;-77
2022/06/16 00:41:11;;;;;;;;;;;;;;;;;;4190110;28;44146;-77
2022/06/16 00:43:13;;;;;;;;;;;;;;;;;;4192295;28;43552;-77
2022/06/16 00:45:15;;;;;;;;;;;;;;;;;;4190223;28;41300;-78
2022/06/16 00:47:17;;;;;;;;;;;;;;;;;;4188971;28;44483;-78
2022/06/16 00:49:19;;;;;;;;;;;;;;;;;;4188971;28;43528;-77
2022/06/16 00:51:21;;;;;;;;;;;;;;;;;;4188903;28;43007;-77
2022/06/16 00:53:23;;;;;;;;;;;;;;;;;;4190768;28;43195;-77
2022/06/16 00:55:26;;;;;;;;;;;;;;;;;;4190146;28;44551;-77
2022/06/16 00:57:28;;;;;;;;;;;;;;;;;;4189952;28;42579;-77
2022/06/16 00:59:30;;;;;;;;;;;;;;;;;;4190105;28;43026;-78
2022/06/16 01:01:32;;;;;;;;;;;;;;;;;;4187495;28;43045;-77
2022/06/16 01:05:55;;;;;;;;;;;;;;;;;;4185788;28;43079;-78
2022/06/16 01:07:57;;;;;;;;;;;;;;;;;;4187423;28;43696;-77
2022/06/16 01:09:59;;;;;;;;;;;;;;;;;;4187788;28;43626;-77
2022/06/16 01:14:22;;;;;;;;;;;;;;;;;;4186958;28;43219;-78
2022/06/16 01:16:24;;;;;;;;;;;;;;;;;;4187026;28;44584;-77
2022/06/16 01:18:27;;;;;;;;;;;;;;;;;;4187481;28;43509;-77
2022/06/16 01:20:29;;;;;;;;;;;;;;;;;;4186774;28;43136;-77
2022/06/16 01:22:31;;;;;;;;;;;;;;;;;;4184625;28;44196;-77
2022/06/16 01:24:32;;;;;;;;;;;;;;;;;;4187808;28;44361;-76
2022/06/16 01:26:34;;;;;;;;;;;;;;;;;;4185958;28;43347;-77
2022/06/16 01:28:36;;;;;;;;;;;;;;;;;;4189841;28;42886;-76
2022/06/16 01:30:38;;;;;;;;;;;;;;;;;;4189359;28;44315;-76
2022/06/16 01:32:40;;;;;;;;;;;;;;;;;;4189149;28;44322;-77
2022/06/16 01:34:42;;;;;;;;;;;;;;;;;;4189234;28;44246;-77
2022/06/16 01:36:44;;;;;;;;;;;;;;;;;;4199579;28;44314;-76
2022/06/16 01:38:46;;;;;;;;;;;;;;;;;;4196667;28;43340;-78
2022/06/16 01:40:48;;;;;;;;;;;;;;;;;;4190198;28;42593;-78
2022/06/16 01:42:50;;;;;;;;;;;;;;;;;;4190697;28;43408;-78
2022/06/16 01:44:55;;;;;;;;;;;;;;;;;;4191182;28;44156;-78
2022/06/16 01:46:57;;;;;;;;;;;;;;;;;;4188429;28;44376;-77
2022/06/16 01:48:59;;;;;;;;;;;;;;;;;;4190749;28;44233;-78
2022/06/16 01:51:01;;;;;;;;;;;;;;;;;;4190853;28;43234;-78
2022/06/16 01:53:03;;;;;;;;;;;;;;;;;;4193202;28;43147;-77
2022/06/16 01:55:05;;;;;;;;;;;;;;;;;;4190161;28;43863;-77
2022/06/16 01:57:08;;;;;;;;;;;;;;;;;;4187386;28;44392;-77
2022/06/16 01:59:10;;;;;;;;;;;;;;;;;;4189000;28;43099;-77
2022/06/16 02:01:14;;;;;;;;;;;;;;;;;;4188531;28;43219;-77
2022/06/16 02:03:16;;;;;;;;;;;;;;;;;;4188571;28;43475;-77
2022/06/16 02:05:18;;;;;;;;;;;;;;;;;;4189406;28;43895;-77
2022/06/16 02:07:20;;;;;;;;;;;;;;;;;;4184450;28;43407;-77
2022/06/16 02:09:22;;;;;;;;;;;;;;;;;;4189768;28;43562;-77
2022/06/16 02:11:24;;;;;;;;;;;;;;;;;;4189646;28;44315;-77
2022/06/16 02:13:26;;;;;;;;;;;;;;;;;;4189023;28;44392;-77
2022/06/16 02:15:28;;;;;;;;;;;;;;;;;;4188689;28;44612;-77
2022/06/16 02:17:30;;;;;;;;;;;;;;;;;;4184808;28;43422;-78
2022/06/16 02:19:32;;;;;;;;;;;;;;;;;;4190310;28;43222;-77
2022/06/16 02:21:34;;;;;;;;;;;;;;;;;;4188572;28;43343;-77
2022/06/16 02:23:36;;;;;;;;;;;;;;;;;;4188601;28;44171;-78
2022/06/16 02:25:38;;;;;;;;;;;;;;;;;;4188566;28;42803;-78
2022/06/16 02:27:40;;;;;;;;;;;;;;;;;;4188693;28;43340;-77
2022/06/16 02:29:42;;;;;;;;;;;;;;;;;;4189301;28;43897;-77
2022/06/16 02:31:44;;;;;;;;;;;;;;;;;;4187888;28;43043;-77
2022/06/16 02:33:46;;;;;;;;;;;;;;;;;;4186138;28;42067;-76
2022/06/16 02:35:48;;;;;;;;;;;;;;;;;;4189969;28;43219;-77
2022/06/16 02:37:50;;;;;;;;;;;;;;;;;;4186039;28;43189;-76
2022/06/16 02:39:52;;;;;;;;;;;;;;;;;;4184567;28;43324;-77
2022/06/16 02:41:54;;;;;;;;;;;;;;;;;;4169520;28;44772;-77
2022/06/16 02:43:56;;;;;;;;;;;;;;;;;;4187287;28;43179;-76
2022/06/16 02:45:58;;;;;;;;;;;;;;;;;;4188521;28;43485;-77
2022/06/16 02:48:00;;;;;;;;;;;;;;;;;;4188020;28;41781;-76
2022/06/16 02:50:02;;;;;;;;;;;;;;;;;;4185740;28;41561;-77
2022/06/16 02:52:04;;;;;;;;;;;;;;;;;;4186952;28;44252;-78
2022/06/16 02:54:13;;;;;;;;;;;;;;;;;;4185778;28;44313;-78
2022/06/16 02:56:15;;;;;;;;;;;;;;;;;;4183330;28;43247;-77
2022/06/16 02:58:17;;;;;;;;;;;;;;;;;;4186521;28;44249;-77
2022/06/16 03:00:19;;;;;;;;;;;;;;;;;;4184927;28;41821;-77
2022/06/16 03:02:21;;;;;;;;;;;;;;;;;;4186713;28;43231;-77
2022/06/16 03:04:24;;;;;;;;;;;;;;;;;;4186358;28;43812;-77
2022/06/16 03:06:25;;;;;;;;;;;;;;;;;;4185682;28;43209;-77
2022/06/16 03:08:27;;;;;;;;;;;;;;;;;;4229042;22;43126;-82
2022/06/16 03:11:12;;;;;;;;;;;;;;;;;;4203392;28;44298;-82
2022/06/16 03:12:55;;;;;;;;;;;;;;;;;;4199200;28;43550;-81
2022/06/16 03:14:57;;;;;;;;;;;;;;;;;;4211907;28;43063;-82
2022/06/16 03:16:59;;;;;;;;;;;;;;;;;;4214753;28;43509;-80
2022/06/16 03:19:01;;;;;;;;;;;;;;;;;;4214288;28;44595;-78
2022/06/16 03:21:03;;;;;;;;;;;;;;;;;;4218880;28;44687;-82
2022/06/16 03:23:05;;;;;;;;;;;;;;;;;;4214265;28;43180;-80
2022/06/16 03:25:07;;;;;;;;;;;;;;;;;;4219993;28;42873;-81
2022/06/16 03:27:09;;;;;;;;;;;;;;;;;;4211602;28;44542;-81
2022/06/16 03:29:11;;;;;;;;;;;;;;;;;;4202743;28;44330;-81
2022/06/16 03:31:13;;;;;;;;;;;;;;;;;;4208596;28;43338;-82
2022/06/16 03:33:15;;;;;;;;;;;;;;;;;;4215187;28;43529;-81
2022/06/16 03:35:17;;;;;;;;;;;;;;;;;;4209302;28;42129;-81
2022/06/16 03:37:19;;;;;;;;;;;;;;;;;;4217020;28;42400;-84
2022/06/16 03:39:21;;;;;;;;;;;;;;;;;;4215648;28;41205;-84
2022/06/16 03:41:23;;;;;;;;;;;;;;;;;;4217502;28;43065;-85
2022/06/16 03:43:25;;;;;;;;;;;;;;;;;;4216467;28;41657;-80
2022/06/16 03:45:27;;;;;;;;;;;;;;;;;;4208395;28;41571;-80
2022/06/16 03:47:29;;;;;;;;;;;;;;;;;;4207447;28;43420;-81
2022/06/16 03:49:31;;;;;;;;;;;;;;;;;;4213807;28;41912;-81
2022/06/16 03:51:33;;;;;;;;;;;;;;;;;;4216357;28;41671;-81
2022/06/16 03:53:35;;;;;;;;;;;;;;;;;;4219112;28;43440;-81
2022/06/16 03:55:37;;;;;;;;;;;;;;;;;;4212772;28;43842;-81
2022/06/16 03:57:39;;;;;;;;;;;;;;;;;;4209394;28;43950;-81
2022/06/16 03:59:41;;;;;;;;;;;;;;;;;;4212593;28;44885;-82
2022/06/16 04:01:43;;;;;;;;;;;;;;;;;;4210501;28;44484;-82
2022/06/16 04:04:01;;;;;;;;;;;;;;;;;;4215522;28;43087;-82
2022/06/16 04:06:03;;;;;;;;;;;;;;;;;;4216909;28;42039;-82
2022/06/16 04:08:05;;;;;;;;;;;;;;;;;;4220615;28;42176;-80
2022/06/16 04:10:07;;;;;;;;;;;;;;;;;;4234152;27;43376;-83
2022/06/16 04:12:09;;;;;;;;;;;;;;;;;;4226105;28;42596;-84
2022/06/16 04:14:11;;;;;;;;;;;;;;;;;;4213659;28;43358;-83
2022/06/16 04:16:13;;;;;;;;;;;;;;;;;;4212756;28;44285;-83
2022/06/16 04:18:15;;;;;;;;;;;;;;;;;;4219304;28;43172;-84
2022/06/16 04:20:18;;;;;;;;;;;;;;;;;;4212722;28;44148;-84
2022/06/16 04:22:19;;;;;;;;;;;;;;;;;;4214657;28;43642;-83
2022/06/16 04:24:22;;;;;;;;;;;;;;;;;;4230930;28;43238;-84
2022/06/16 04:26:24;;;;;;;;;;;;;;;;;;4213695;28;43450;-83
2022/06/16 04:28:26;;;;;;;;;;;;;;;;;;4211954;28;41997;-84
2022/06/16 04:30:28;;;;;;;;;;;;;;;;;;4218523;28;44197;-84
2022/06/16 04:32:30;;;;;;;;;;;;;;;;;;4213935;28;43965;-83
2022/06/16 04:34:32;;;;;;;;;;;;;;;;;;4218513;28;42451;-81
2022/06/16 04:36:34;;;;;;;;;;;;;;;;;;4217682;28;44347;-80
2022/06/16 04:38:36;;;;;;;;;;;;;;;;;;4220024;28;44541;-81
2022/06/16 04:40:38;;;;;;;;;;;;;;;;;;4213386;28;43077;-81
2022/06/16 04:42:40;;;;;;;;;;;;;;;;;;4209101;28;43211;-81
2022/06/16 04:44:42;;;;;;;;;;;;;;;;;;4230038;28;44188;-81
2022/06/16 04:46:44;;;;;;;;;;;;;;;;;;4216867;28;44221;-81
2022/06/16 04:48:46;;;;;;;;;;;;;;;;;;4216293;28;44581;-81
2022/06/16 04:50:48;;;;;;;;;;;;;;;;;;4217199;28;44684;-81
2022/06/16 04:52:50;;;;;;;;;;;;;;;;;;4216905;28;42728;-81
2022/06/16 04:54:52;;;;;;;;;;;;;;;;;;4200697;28;43476;-82
2022/06/16 04:57:00;;;;;;;;;;;;;;;;;;4200487;28;43529;-82
2022/06/16 04:59:02;;;;;;;;;;;;;;;;;;4199821;28;41771;-81
2022/06/16 05:01:05;;;;;;;;;;;;;;;;;;4206577;28;44449;-82
2022/06/16 05:03:23;;;;;;;;;;;;;;;;;;4212781;28;43208;-81
2022/06/16 05:05:25;;;;;;;;;;;;;;;;;;4219486;28;43655;-82
2022/06/16 05:07:27;;;;;;;;;;;;;;;;;;4219796;28;44169;-82
2022/06/16 05:09:29;;;;;;;;;;;;;;;;;;4222488;28;43210;-82
2022/06/16 05:11:31;;;;;;;;;;;;;;;;;;4201404;28;43229;-81
2022/06/16 05:13:33;;;;;;;;;;;;;;;;;;4208136;28;43080;-82
2022/06/16 05:15:35;;;;;;;;;;;;;;;;;;4213803;28;44406;-82
2022/06/16 05:17:37;;;;;;;;;;;;;;;;;;4210397;28;42447;-82
2022/06/16 05:19:39;;;;;;;;;;;;;;;;;;4217565;28;41834;-81
2022/06/16 05:21:41;;;;;;;;;;;;;;;;;;4211265;28;43192;-81
2022/06/16 05:23:43;;;;;;;;;;;;;;;;;;4203410;28;43321;-81
2022/06/16 05:25:45;;;;;;;;;;;;;;;;;;4203165;28;43585;-82
2022/06/16 05:27:47;;;;;;;;;;;;;;;;;;4200077;28;43188;-82
2022/06/16 05:29:49;;;;;;;;;;;;;;;;;;4200616;28;42793;-82
2022/06/16 05:31:51;;;;;;;;;;;;;;;;;;4209836;28;43544;-84
2022/06/16 05:33:56;;;;;;;;;;;;;;;;;;4220601;28;43277;-83
2022/06/16 05:35:58;;;;;;;;;;;;;;;;;;4215698;28;43365;-83
2022/06/16 05:38:00;;;;;;;;;;;;;;;;;;4212151;28;41436;-83
2022/06/16 05:40:01;;;;;;;;;;;;;;;;;;4219558;28;43558;-82
2022/06/16 05:42:03;;;;;;;;;;;;;;;;;;4223251;28;43093;-82
2022/06/16 05:44:06;;;;;;;;;;;;;;;;;;4220473;28;43179;-83
2022/06/16 05:46:08;;;;;;;;;;;;;;;;;;4216806;28;42553;-83
2022/06/16 05:48:15;;;;;;;;;;;;;;;;;;4217592;28;43417;-82
2022/06/16 05:50:17;;;;;;;;;;;;;;;;;;4232979;28;43953;-85
2022/06/16 05:52:19;;;;;;;;;;;;;;;;;;4218224;28;41808;-82
2022/06/16 05:54:21;;;;;;;;;;;;;;;;;;4221752;28;43437;-84
2022/06/16 05:56:23;;;;;;;;;;;;;;;;;;4225847;28;41226;-81
2022/06/16 05:58:25;;;;;;;;;;;;;;;;;;4217602;28;42087;-82
2022/06/16 06:00:27;;;;;;;;;;;;;;;;;;4218181;28;41711;-82
2022/06/16 06:02:30;;;;;;;;;;;;;;;;;;4216787;28;44898;-83
2022/06/16 06:04:33;;;;;;;;;;;;;;;;;;4215212;28;43027;-80
2022/06/16 06:06:35;;;;;;;;;;;;;;;;;;4213570;28;44464;-81
2022/06/16 06:18:00;;;;;;;;;;;;;;;;;;4209917;28;43202;-82
2022/06/16 06:20:02;;;;;;;;;;;;;;;;;;4208842;28;42322;-82
2022/06/16 06:22:11;;;;;;;;;;;;;;;;;;4222409;28;43249;-82
2022/06/16 06:24:13;;;;;;;;;;;;;;;;;;4220540;28;42562;-82
2022/06/16 06:26:15;;;;;;;;;;;;;;;;;;4233733;28;43165;-83
2022/06/16 06:28:17;;;;;;;;;;;;;;;;;;4218962;28;42947;-81
2022/06/16 06:30:19;;;;;;;;;;;;;;;;;;4202530;28;43730;-82
2022/06/16 06:32:21;;;;;;;;;;;;;;;;;;4213092;28;43039;-83
2022/06/16 06:34:23;;;;;;;;;;;;;;;;;;4215918;28;42710;-83
2022/06/16 06:36:25;;;;;;;;;;;;;;;;;;4215337;28;43365;-83
2022/06/16 06:38:27;;;;;;;;;;;;;;;;;;4215529;28;44383;-82
2022/06/16 06:40:29;;;;;;;;;;;;;;;;;;4202834;28;43565;-82
2022/06/16 06:42:31;;;;;;;;;;;;;;;;;;4212752;28;43104;-82
2022/06/16 06:44:33;;;;;;;;;;;;;;;;;;4213971;28;43083;-82
2022/06/16 06:46:35;;;;;;;;;;;;;;;;;;4208941;28;44427;-82
2022/06/16 06:48:37;;;;;;;;;;;;;;;;;;4213882;28;43058;-79
2022/06/16 06:50:40;;;;;;;;;;;;;;;;;;4220093;28;43097;-79
2022/06/16 06:52:42;;;;;;;;;;;;;;;;;;4214468;28;42550;-83
2022/06/16 06:54:45;;;;;;;;;;;;;;;;;;4214219;28;42810;-83
2022/06/16 06:56:47;;;;;;;;;;;;;;;;;;4214971;28;43198;-82
2022/06/16 06:58:49;;;;;;;;;;;;;;;;;;4222471;28;44314;-83
2022/06/16 07:00:53;;;;;;;;;;;;;;;;;;4218234;28;43469;-83
2022/06/16 07:02:55;;;;;;;;;;;;;;;;;;4215920;28;43234;-78
2022/06/16 07:04:58;;;;;;;;;;;;;;;;;;4208023;28;43349;-73
2022/06/16 07:07:00;;;;;;;;;;;;;;;;;;4206822;28;43103;-73
2022/06/16 07:09:03;;;;;;;;;;;;;;;;;;4209631;28;44704;-72
2022/06/16 07:11:05;;;;;;;;;;;;;;;;;;4201574;28;43664;-72
2022/06/16 07:13:07;;;;;;;;;;;;;;;;;;4205952;28;44299;-72
2022/06/16 07:15:09;;;;;;;;;;;;;;;;;;4206116;28;43675;-72
2022/06/16 07:17:11;;;;;;;;;;;;;;;;;;4201883;28;44701;-72
2022/06/16 07:19:13;;;;;;;;;;;;;;;;;;4194666;28;44676;-73
2022/06/16 07:21:15;;;;;;;;;;;;;;;;;;4205507;28;43359;-72
2022/06/16 07:23:18;;;;;;;;;;;;;;;;;;4199388;28;44334;-72
2022/06/16 07:25:20;;;;;;;;;;;;;;;;;;4199423;28;41832;-72
2022/06/16 07:27:22;;;;;;;;;;;;;;;;;;4209365;28;43055;-72
2022/06/16 07:29:24;;;;;;;;;;;;;;;;;;4202153;28;43276;-75
2022/06/16 07:31:29;;;;;;;;;;;;;;;;;;4208777;28;44514;-72
2022/06/16 07:33:38;;;;;;;;;;;;;;;;;;4211410;28;44186;-72
2022/06/16 07:35:41;;;;;;;;;;;;;;;;;;4212443;28;44259;-72
2022/06/16 07:37:43;;;;;;;;;;;;;;;;;;4200734;28;43149;-72
2022/06/16 07:39:45;;;;;;;;;;;;;;;;;;4202565;28;43243;-72
2022/06/16 07:41:47;;;;;;;;;;;;;;;;;;4206370;28;43666;-72
2022/06/16 07:43:49;;;;;;;;;;;;;;;;;;4204165;28;41697;-72
2022/06/16 07:45:51;;;;;;;;;;;;;;;;;;4205506;28;44753;-73
2022/06/16 07:47:53;;;;;;;;;;;;;;;;;;4208495;28;41849;-73
2022/06/16 07:49:55;;;;;;;;;;;;;;;;;;4211273;28;43120;-73
2022/06/16 07:52:00;;;;;;;;;;;;;;;;;;4210773;28;43252;-72
2022/06/16 07:54:02;;;;;;;;;;;;;;;;;;4212324;28;44324;-72
2022/06/16 07:56:04;;;;;;;;;;;;;;;;;;4205861;28;41120;-72
2022/06/16 07:58:06;;;;;;;;;;;;;;;;;;4212221;28;41835;-73
2022/06/16 08:00:08;;;;;;;;;;;;;;;;;;4207276;28;43903;-72
2022/06/16 08:02:09;;;;;;;;;;;;;;;;;;4202195;28;43689;-72
2022/06/16 08:04:12;;;;;;;;;;;;;;;;;;4207283;28;44289;-76
2022/06/16 08:06:14;;;;;;;;;;;;;;;;;;4208949;28;45065;-72
2022/06/16 08:08:16;;;;;;;;;;;;;;;;;;4208913;28;44359;-74
2022/06/16 08:10:18;;;;;;;;;;;;;;;;;;4208505;28;43394;-73
2022/06/16 08:12:20;;;;;;;;;;;;;;;;;;4211202;28;43413;-73
2022/06/16 08:14:22;;;;;;;;;;;;;;;;;;4209196;28;43788;-73
2022/06/16 08:16:24;;;;;;;;;;;;;;;;;;4201233;28;41709;-72
2022/06/16 08:18:27;;;;;;;;;;;;;;;;;;4206862;28;41530;-72
2022/06/16 08:20:29;;;;;;;;;;;;;;;;;;4209891;28;43622;-76
2022/06/16 08:22:33;;;;;;;;;;;;;;;;;;4202075;28;41622;-74
2022/06/16 08:24:35;;;;;;;;;;;;;;;;;;4207700;28;44455;-73
2022/06/16 08:26:38;;;;;;;;;;;;;;;;;;4207927;28;43075;-73
2022/06/16 08:28:40;;;;;;;;;;;;;;;;;;4203078;28;43218;-72
2022/06/16 08:30:44;;;;;;;;;;;;;;;;;;4212644;28;43652;-73
2022/06/16 08:32:46;;;;;;;;;;;;;;;;;;4206953;28;44316;-73
2022/06/16 08:34:48;;;;;;;;;;;;;;;;;;4198535;28;42667;-74
2022/06/16 08:36:50;;;;;;;;;;;;;;;;;;4198631;28;40224;-73
2022/06/16 08:38:52;;;;;;;;;;;;;;;;;;4207547;28;43887;-73
2022/06/16 08:41:11;;;;;;;;;;;;;;;;;;4210147;28;44414;-73
2022/06/16 08:43:13;;;;;;;;;;;;;;;;;;4211129;28;43031;-74
2022/06/16 08:45:15;;;;;;;;;;;;;;;;;;4207795;28;44162;-73
2022/06/16 08:47:17;;;;;;;;;;;;;;;;;;4205236;28;44562;-73
2022/06/16 08:49:19;;;;;;;;;;;;;;;;;;4210461;28;43445;-74
2022/06/16 08:51:21;;;;;;;;;;;;;;;;;;4205871;28;43101;-75
2022/06/16 08:53:24;;;;;;;;;;;;;;;;;;4201705;28;44144;-77
2022/06/16 08:55:31;;;;;;;;;;;;;;;;;;4206396;28;44535;-73
2022/06/16 08:57:33;;;;;;;;;;;;;;;;;;4203842;28;41786;-73
2022/06/16 08:59:35;;;;;;;;;;;;;;;;;;4201751;28;43515;-72
2022/06/16 09:01:38;;;;;;;;;;;;;;;;;;4211797;28;43547;-73
2022/06/16 09:03:40;;;;;;;;;;;;;;;;;;4206185;28;44538;-72
2022/06/16 09:05:42;;;;;;;;;;;;;;;;;;4208425;28;43615;-72
2022/06/16 09:07:44;;;;;;;;;;;;;;;;;;4204357;28;43631;-73
2022/06/16 09:12:07;;;;;;;;;;;;;;;;;;4203608;28;44188;-72
2022/06/16 09:14:10;;;;;;;;;;;;;;;;;;4199278;28;42595;-74
2022/06/16 09:16:12;;;;;;;;;;;;;;;;;;4203983;28;44254;-74
2022/06/16 09:18:14;;;;;;;;;;;;;;;;;;4207151;28;44329;-75
2022/06/16 09:20:18;;;;;;;;;;;;;;;;;;4203889;28;43736;-72
2022/06/16 09:22:20;;;;;;;;;;;;;;;;;;4207143;28;43048;-74
2022/06/16 09:24:22;;;;;;;;;;;;;;;;;;4203815;28;43180;-81
2022/06/16 09:26:24;;;;;;;;;;;;;;;;;;4210091;28;43085;-74
2022/06/16 09:28:28;;;;;;;;;;;;;;;;;;4208491;28;43533;-74
2022/06/16 09:30:31;;;;;;;;;;;;;;;;;;4206588;28;44567;-74
2022/06/16 09:32:33;;;;;;;;;;;;;;;;;;4205420;28;42857;-74
2022/06/16 09:34:40;;;;;;;;;;;;;;;;;;4206087;28;44117;-73
2022/06/16 09:36:42;;;;;;;;;;;;;;;;;;4203967;28;42715;-72
2022/06/16 09:38:44;;;;;;;;;;;;;;;;;;4203034;28;44342;-73
2022/06/16 09:40:47;;;;;;;;;;;;;;;;;;4203458;28;44209;-72
2022/06/16 09:42:49;;;;;;;;;;;;;;;;;;4206931;28;43293;-73
2022/06/16 09:44:51;;;;;;;;;;;;;;;;;;4201936;28;44392;-72
2022/06/16 09:46:53;;;;;;;;;;;;;;;;;;4199936;28;44584;-75
2022/06/16 09:48:55;;;;;;;;;;;;;;;;;;4208462;28;43523;-72
2022/06/16 09:50:57;;;;;;;;;;;;;;;;;;4198655;28;43231;-72
2022/06/16 09:52:59;;;;;;;;;;;;;;;;;;4202945;28;41973;-72
2022/06/16 09:55:01;;;;;;;;;;;;;;;;;;4202746;28;42605;-73
2022/06/16 09:57:03;;;;;;;;;;;;;;;;;;4198223;28;42484;-72
2022/06/16 09:59:05;;;;;;;;;;;;;;;;;;4198401;28;43641;-73
2022/06/16 10:01:08;;;;;;;;;;;;;;;;;;4216265;28;43095;-76
2022/06/16 10:03:12;;;;;;;;;;;;;;;;;;4204488;28;43376;-76
2022/06/16 10:05:15;;;;;;;;;;;;;;;;;;4201041;28;44514;-72
2022/06/16 10:07:17;;;;;;;;;;;;;;;;;;4207894;28;43985;-72
2022/06/16 10:09:19;;;;;;;;;;;;;;;;;;4201978;28;41881;-73
2022/06/16 10:11:26;;;;;;;;;;;;;;;;;;4201863;28;44414;-72
2022/06/16 10:13:29;;;;;;;;;;;;;;;;;;4200815;28;42814;-73
2022/06/16 10:15:36;;;;;;;;;;;;;;;;;;4198629;28;41546;-71
2022/06/16 10:17:38;;;;;;;;;;;;;;;;;;4199593;28;42521;-72
2022/06/16 10:19:40;;;;;;;;;;;;;;;;;;4201502;28;44334;-73
2022/06/16 10:21:42;;;;;;;;;;;;;;;;;;4196349;28;43214;-72
2022/06/16 10:23:44;;;;;;;;;;;;;;;;;;4198232;28;43483;-72
2022/06/16 10:25:46;;;;;;;;;;;;;;;;;;4200340;28;44178;-73
2022/06/16 10:27:48;;;;;;;;;;;;;;;;;;4203768;28;43141;-72
2022/06/16 10:29:50;;;;;;;;;;;;;;;;;;4199605;28;44284;-72
2022/06/16 10:31:52;;;;;;;;;;;;;;;;;;4200551;28;42708;-72
2022/06/16 10:33:54;;;;;;;;;;;;;;;;;;4198961;28;42305;-72
2022/06/16 10:35:57;;;;;;;;;;;;;;;;;;4198770;28;41479;-73
2022/06/16 10:37:59;;;;;;;;;;;;;;;;;;4207105;28;43727;-72
2022/06/16 10:40:01;;;;;;;;;;;;;;;;;;4204769;28;44297;-72
2022/06/16 10:42:03;;;;;;;;;;;;;;;;;;4204767;28;45041;-72
2022/06/16 10:44:06;;;;;;;;;;;;;;;;;;4206515;28;43314;-73
2022/06/16 10:46:08;;;;;;;;;;;;;;;;;;4207466;28;43385;-73
2022/06/16 10:48:10;;;;;;;;;;;;;;;;;;4202945;28;44729;-73
2022/06/16 10:50:12;;;;;;;;;;;;;;;;;;4207598;28;43730;-73
2022/06/16 10:52:14;;;;;;;;;;;;;;;;;;4203790;28;43351;-73
2022/06/16 10:54:16;;;;;;;;;;;;;;;;;;4203496;28;43307;-76
2022/06/16 10:56:19;;;;;;;;;;;;;;;;;;4208960;28;44646;-77
2022/06/16 10:58:23;;;;;;;;;;;;;;;;;;4205473;28;43399;-77
2022/06/16 11:00:25;;;;;;;;;;;;;;;;;;4206609;28;44602;-80
2022/06/16 11:02:27;;;;;;;;;;;;;;;;;;4224390;27;40714;-80
2022/06/16 11:04:29;;;;;;;;;;;;;;;;;;4214647;28;41756;-82
2022/06/16 11:06:31;;;;;;;;;;;;;;;;;;4210013;28;44603;-76
2022/06/16 11:08:33;;;;;;;;;;;;;;;;;;4208490;28;44365;-76
2022/06/16 11:10:51;;;;;;;;;;;;;;;;;;4204197;28;43061;-76
2022/06/16 11:12:53;;;;;;;;;;;;;;;;;;4204893;28;44308;-76
2022/06/16 11:14:55;;;;;;;;;;;;;;;;;;4206470;28;41780;-76
2022/06/16 11:16:57;;;;;;;;;;;;;;;;;;4203017;28;43201;-76
2022/06/16 11:18:59;;;;;;;;;;;;;;;;;;4203751;28;44678;-76
2022/06/16 11:21:01;;;;;;;;;;;;;;;;;;4202501;28;43663;-75
2022/06/16 11:23:03;;;;;;;;;;;;;;;;;;4208428;28;43300;-78
2022/06/16 11:25:05;;;;;;;;;;;;;;;;;;4202057;28;43546;-76
2022/06/16 11:27:07;;;;;;;;;;;;;;;;;;4204684;28;43101;-79
2022/06/16 11:29:15;;;;;;;;;;;;;;;;;;4210354;28;44961;-77
2022/06/16 11:31:18;;;;;;;;;;;;;;;;;;4207246;28;43248;-76
2022/06/16 11:35:44;;;;;;;;;;;;;;;;;;4210772;28;44219;-76
2022/06/16 11:37:46;;;;;;;;;;;;;;;;;;4207228;28;43060;-76
2022/06/16 11:39:48;;;;;;;;;;;;;;;;;;4207340;28;44827;-76
2022/06/16 11:41:50;;;;;;;;;;;;;;;;;;4207127;28;43686;-77
2022/06/16 11:43:52;;;;;;;;;;;;;;;;;;4206710;28;44883;-77
2022/06/16 11:45:54;;;;;;;;;;;;;;;;;;4207927;28;43443;-76
2022/06/16 11:47:56;;;;;;;;;;;;;;;;;;4206489;28;43009;-77
2022/06/16 11:49:59;;;;;;;;;;;;;;;;;;4212587;28;42714;-77
2022/06/16 11:52:01;;;;;;;;;;;;;;;;;;4210511;28;43205;-77
2022/06/16 11:54:03;;;;;;;;;;;;;;;;;;4209522;28;43109;-77
2022/06/16 11:56:05;;;;;;;;;;;;;;;;;;4209767;28;41628;-77
2022/06/16 11:58:07;;;;;;;;;;;;;;;;;;4209140;28;44072;-77
2022/06/16 12:00:09;;;;;;;;;;;;;;;;;;4206493;28;44839;-77
2022/06/16 12:02:11;;;;;;;;;;;;;;;;;;4205686;28;41716;-78
2022/06/16 12:04:13;;;;;;;;;;;;;;;;;;4210079;28;44277;-78
2022/06/16 12:06:18;;;;;;;;;;;;;;;;;;4208456;28;44608;-77
2022/06/16 12:08:20;;;;;;;;;;;;;;;;;;4209598;28;42687;-78
2022/06/16 12:10:22;;;;;;;;;;;;;;;;;;4207738;28;43261;-77
2022/06/16 12:12:24;;;;;;;;;;;;;;;;;;4207522;28;44398;-78
2022/06/16 12:14:26;;;;;;;;;;;;;;;;;;4204989;28;44505;-78
2022/06/16 12:16:28;;;;;;;;;;;;;;;;;;4211423;28;44175;-78
2022/06/16 12:18:30;;;;;;;;;;;;;;;;;;4209908;28;44268;-77
2022/06/16 12:20:32;;;;;;;;;;;;;;;;;;4206960;28;41875;-78
2022/06/16 12:22:40;;;;;;;;;;;;;;;;;;4206878;28;44533;-78
2022/06/16 12:24:42;;;;;;;;;;;;;;;;;;4210927;28;43277;-77
2022/06/16 12:26:44;;;;;;;;;;;;;;;;;;4205022;28;43406;-79
2022/06/16 12:28:46;;;;;;;;;;;;;;;;;;4204315;28;44399;-78
2022/06/16 12:30:48;;;;;;;;;;;;;;;;;;4207500;28;43024;-78
2022/06/16 12:32:50;;;;;;;;;;;;;;;;;;4204105;28;43080;-78
2022/06/16 12:34:52;;;;;;;;;;;;;;;;;;4204583;28;44313;-78
2022/06/16 12:36:54;;;;;;;;;;;;;;;;;;4210533;28;42710;-79
2022/06/16 12:38:56;;;;;;;;;;;;;;;;;;4210481;28;42137;-78
2022/06/16 12:40:58;;;;;;;;;;;;;;;;;;4205470;28;43671;-78
2022/06/16 12:43:00;;;;;;;;;;;;;;;;;;4213538;28;42882;-78
2022/06/16 12:45:02;;;;;;;;;;;;;;;;;;4204683;28;43944;-77
2022/06/16 12:47:04;;;;;;;;;;;;;;;;;;4205821;28;41829;-77
2022/06/16 12:49:06;;;;;;;;;;;;;;;;;;4212324;28;43669;-78
2022/06/16 12:51:08;;;;;;;;;;;;;;;;;;4209367;28;43205;-77
2022/06/16 12:53:11;;;;;;;;;;;;;;;;;;4204509;28;43099;-79
2022/06/16 12:55:13;;;;;;;;;;;;;;;;;;4211447;28;43557;-77
2022/06/16 12:57:15;;;;;;;;;;;;;;;;;;4213171;28;43833;-78
2022/06/16 12:59:17;;;;;;;;;;;;;;;;;;4203252;28;44926;-78
2022/06/16 13:01:19;;;;;;;;;;;;;;;;;;4211870;28;43210;-78
2022/06/16 13:03:21;;;;;;;;;;;;;;;;;;4210638;28;44596;-78
2022/06/16 13:05:24;;;;;;;;;;;;;;;;;;4208581;28;44631;-78
2022/06/16 13:07:26;;;;;;;;;;;;;;;;;;4207570;28;44320;-77
2022/06/16 13:09:31;;;;;;;;;;;;;;;;;;4212426;28;45192;-77
2022/06/16 13:11:33;;;;;;;;;;;;;;;;;;4202553;28;41911;-78
2022/06/16 13:13:35;;;;;;;;;;;;;;;;;;4201594;28;44049;-78
2022/06/16 13:15:38;;;;;;;;;;;;;;;;;;4204458;28;43240;-78
2022/06/16 13:17:40;;;;;;;;;;;;;;;;;;4202666;28;43570;-78
2022/06/16 13:19:42;;;;;;;;;;;;;;;;;;4200899;28;43068;-78
2022/06/16 13:21:44;;;;;;;;;;;;;;;;;;4203478;28;44280;-78
2022/06/16 13:23:46;;;;;;;;;;;;;;;;;;4203228;28;42605;-78
2022/06/16 13:25:48;;;;;;;;;;;;;;;;;;4212620;28;41767;-78
2022/06/16 13:27:52;;;;;;;;;;;;;;;;;;4204904;28;43033;-78
2022/06/16 13:29:54;;;;;;;;;;;;;;;;;;4204454;28;44326;-78
2022/06/16 13:31:56;;;;;;;;;;;;;;;;;;4212163;28;44583;-78
2022/06/16 13:33:58;;;;;;;;;;;;;;;;;;4204921;28;43072;-79
2022/06/16 13:36:00;;;;;;;;;;;;;;;;;;4202726;28;43321;-78
2022/06/16 13:38:02;;;;;;;;;;;;;;;;;;4204230;28;43416;-77
2022/06/16 13:40:04;;;;;;;;;;;;;;;;;;4202432;28;44139;-79
2022/06/16 13:42:06;;;;;;;;;;;;;;;;;;4203445;28;43246;-79
2022/06/16 13:44:08;;;;;;;;;;;;;;;;;;4204505;28;43751;-78
2022/06/16 13:46:10;;;;;;;;;;;;;;;;;;4208770;28;40996;-78
2022/06/16 13:48:13;;;;;;;;;;;;;;;;;;4210129;28;43558;-78
2022/06/16 13:50:16;;;;;;;;;;;;;;;;;;4205314;28;41924;-77
2022/06/16 13:52:18;;;;;;;;;;;;;;;;;;4209357;28;43381;-78
2022/06/16 13:54:21;;;;;;;;;;;;;;;;;;4206350;28;41536;-78
2022/06/16 13:56:23;;;;;;;;;;;;;;;;;;4211404;28;43654;-78
2022/06/16 13:58:40;;;;;;;;;;;;;;;;;;4206770;28;42124;-77
2022/06/16 14:00:42;;;;;;;;;;;;;;;;;;4207188;28;41865;-78
2022/06/16 14:02:44;;;;;;;;;;;;;;;;;;4214154;28;44524;-77
2022/06/16 14:04:46;;;;;;;;;;;;;;;;;;4206164;28;43503;-78
2022/06/16 14:06:48;;;;;;;;;;;;;;;;;;4205870;28;43560;-78
2022/06/16 14:08:55;;;;;;;;;;;;;;;;;;4210951;28;43137;-79
2022/06/16 14:10:57;;;;;;;;;;;;;;;;;;4223676;28;44260;-77
2022/06/16 14:12:59;;;;;;;;;;;;;;;;;;4211064;28;43562;-79
2022/06/16 14:15:02;;;;;;;;;;;;;;;;;;4212581;28;43244;-78